createdAt,value
2017-08-23T00:00:25.542Z,79.64
2017-08-23T00:01:06.104Z,79.64
2017-08-23T00:01:46.698Z,79.25
2017-08-23T00:02:27.244Z,79.64
2017-08-23T00:03:07.819Z,79.44
2017-08-23T00:03:48.399Z,80.4
2017-08-23T00:04:28.981Z,79.93
2017-08-23T00:05:09.567Z,80.02
2017-08-23T00:05:50.147Z,79.93
2017-08-23T00:06:30.719Z,79.93
2017-08-23T00:07:11.292Z,79.83
2017-08-23T00:07:51.862Z,80.4
2017-08-23T00:08:32.439Z,79.83
2017-08-23T00:09:13.000Z,80.11
2017-08-23T00:09:53.587Z,80.02
2017-08-23T00:10:34.183Z,80.21
2017-08-23T00:11:14.756Z,80.11
2017-08-23T00:11:55.325Z,80.21
2017-08-23T00:12:35.911Z,79.83
2017-08-23T00:13:16.470Z,79.83
2017-08-23T00:13:57.059Z,80.11
2017-08-23T00:14:37.629Z,80.02
2017-08-23T00:15:18.205Z,80.21
2017-08-23T00:15:58.766Z,79.73
2017-08-23T00:16:39.343Z,80.02
2017-08-23T00:17:19.899Z,80.02
2017-08-23T00:18:00.463Z,80.11
2017-08-23T00:18:41.037Z,80.3
2017-08-23T00:19:21.607Z,80.21
2017-08-23T00:20:02.168Z,80.02
2017-08-23T00:20:42.743Z,80.02
2017-08-23T00:21:23.331Z,79.93
2017-08-23T00:22:03.968Z,80.3
2017-08-23T00:22:44.553Z,80.02
2017-08-23T00:23:25.152Z,80.02
2017-08-23T00:24:05.722Z,80.79
2017-08-23T00:24:46.314Z,80.65
2017-08-23T00:25:26.874Z,80.59
2017-08-23T00:26:07.492Z,80.59
2017-08-23T00:26:48.067Z,80.69
2017-08-23T00:27:28.638Z,80.69
2017-08-23T00:28:09.205Z,80.4
2017-08-23T00:28:49.792Z,80.69
2017-08-23T00:29:30.387Z,80.5
2017-08-23T00:30:10.981Z,80.79
2017-08-23T00:30:51.553Z,80.69
2017-08-23T00:31:32.152Z,80.59
2017-08-23T00:32:12.801Z,80.79
2017-08-23T00:32:53.380Z,80.59
2017-08-23T00:33:33.981Z,80.69
2017-08-23T00:34:14.561Z,81.26
2017-08-23T00:34:55.175Z,80.79
2017-08-23T00:35:35.719Z,80.74
2017-08-23T00:36:16.290Z,80.59
2017-08-23T00:36:56.871Z,80.59
2017-08-23T00:37:37.450Z,80.5
2017-08-23T00:38:18.027Z,80.59
2017-08-23T00:38:58.613Z,80.55
2017-08-23T00:39:39.192Z,80.4
2017-08-23T00:40:19.779Z,80.65
2017-08-23T00:41:00.377Z,80.65
2017-08-23T00:41:40.960Z,80.27
2017-08-23T00:42:21.540Z,80.46
2017-08-23T00:43:02.131Z,80.84
2017-08-23T00:43:42.701Z,80.93
2017-08-23T00:44:23.304Z,80.93
2017-08-23T00:45:03.859Z,81.22
2017-08-23T00:45:44.483Z,80.74
2017-08-23T00:46:25.056Z,80.74
2017-08-23T00:47:05.626Z,80.65
2017-08-23T00:47:46.222Z,80.69
2017-08-23T00:48:26.805Z,80.65
2017-08-23T00:49:07.382Z,80.55
2017-08-23T00:49:47.950Z,80.55
2017-08-23T00:50:28.553Z,80.46
2017-08-23T00:51:09.122Z,80.55
2017-08-23T00:51:49.705Z,80.84
2017-08-23T00:52:30.271Z,80.93
2017-08-23T00:53:10.825Z,80.84
2017-08-23T00:53:51.408Z,80.46
2017-08-23T00:54:31.997Z,80.46
2017-08-23T00:55:12.573Z,80.84
2017-08-23T00:55:53.154Z,80.93
2017-08-23T00:56:33.762Z,80.46
2017-08-23T00:57:14.351Z,80.93
2017-08-23T00:57:54.944Z,80.74
2017-08-23T00:58:35.516Z,80.93
2017-08-23T00:59:16.085Z,80.93
2017-08-23T00:59:56.658Z,80.84
2017-08-23T01:00:37.226Z,81.13
2017-08-23T01:01:17.800Z,81.03
2017-08-23T01:01:58.383Z,80.93
2017-08-23T01:02:38.968Z,80.65
2017-08-23T01:03:19.564Z,80.74
2017-08-23T01:04:00.111Z,80.93
2017-08-23T01:04:40.682Z,81.03
2017-08-23T01:05:21.254Z,80.93
2017-08-23T01:06:01.830Z,80.65
2017-08-23T01:06:42.386Z,80.93
2017-08-23T01:07:22.960Z,81.03
2017-08-23T01:08:03.535Z,80.84
2017-08-23T01:08:44.108Z,80.65
2017-08-23T01:09:24.677Z,80.65
2017-08-23T01:10:05.242Z,80.65
2017-08-23T01:10:45.814Z,81.13
2017-08-23T01:11:26.386Z,80.65
2017-08-23T01:12:06.957Z,80.46
2017-08-23T01:12:47.521Z,80.65
2017-08-23T01:13:28.099Z,81.41
2017-08-23T01:14:08.666Z,81.22
2017-08-23T01:14:49.240Z,81.22
2017-08-23T01:15:29.807Z,81.03
2017-08-23T01:16:10.388Z,80.74
2017-08-23T01:16:50.943Z,81.32
2017-08-23T01:17:31.511Z,81.32
2017-08-23T01:18:12.129Z,80.55
2017-08-23T01:18:52.689Z,80.84
2017-08-23T01:19:33.265Z,80.84
2017-08-23T01:20:13.836Z,80.84
2017-08-23T01:20:54.403Z,81.03
2017-08-23T01:21:34.967Z,80.84
2017-08-23T01:22:15.559Z,81.32
2017-08-23T01:22:56.128Z,80.74
2017-08-23T01:23:36.728Z,80.84
2017-08-23T01:24:17.283Z,80.84
2017-08-23T01:24:57.842Z,80.84
2017-08-23T01:25:38.445Z,80.65
2017-08-23T01:26:19.035Z,80.65
2017-08-23T01:26:59.606Z,80.93
2017-08-23T01:27:40.176Z,80.84
2017-08-23T01:28:20.743Z,81.32
2017-08-23T01:29:01.302Z,81.13
2017-08-23T01:29:41.889Z,81.13
2017-08-23T01:30:22.458Z,81.03
2017-08-23T01:31:03.080Z,81.22
2017-08-23T01:31:43.662Z,81.13
2017-08-23T01:32:24.259Z,81.32
2017-08-23T01:33:04.834Z,81.41
2017-08-23T01:33:45.402Z,81.41
2017-08-23T01:34:26.033Z,80.65
2017-08-23T01:35:06.590Z,80.93
2017-08-23T01:35:47.223Z,80.93
2017-08-23T01:36:27.802Z,81.03
2017-08-23T01:37:08.364Z,80.93
2017-08-23T01:37:48.950Z,80.65
2017-08-23T01:38:29.534Z,80.84
2017-08-23T01:39:10.141Z,81.32
2017-08-23T01:39:50.702Z,80.74
2017-08-23T01:40:31.278Z,80.65
2017-08-23T01:41:11.870Z,80.65
2017-08-23T01:41:52.464Z,80.84
2017-08-23T01:42:33.054Z,80.74
2017-08-23T01:43:13.632Z,80.93
2017-08-23T01:43:54.251Z,81.03
2017-08-23T01:44:34.832Z,81.03
2017-08-23T01:45:15.415Z,80.65
2017-08-23T01:45:56.069Z,80.65
2017-08-23T01:46:36.674Z,80.74
2017-08-23T01:47:17.243Z,80.74
2017-08-23T01:47:57.822Z,81.13
2017-08-23T01:48:38.514Z,80.84
2017-08-23T01:49:19.073Z,80.65
2017-08-23T01:49:59.708Z,80.84
2017-08-23T01:50:40.218Z,80.65
2017-08-23T01:51:20.805Z,80.65
2017-08-23T01:52:01.363Z,80.65
2017-08-23T01:52:41.946Z,80.65
2017-08-23T01:53:22.522Z,80.65
2017-08-23T01:54:03.097Z,80.84
2017-08-23T01:54:43.678Z,81.03
2017-08-23T01:55:24.246Z,81.03
2017-08-23T01:56:04.820Z,80.93
2017-08-23T01:56:45.390Z,81.13
2017-08-23T01:57:25.985Z,80.65
2017-08-23T01:58:06.561Z,81.66
2017-08-23T01:58:47.120Z,81.09
2017-08-23T01:59:27.684Z,81.09
2017-08-23T02:00:08.255Z,81.22
2017-08-23T02:00:48.804Z,81.56
2017-08-23T02:01:29.391Z,81.66
2017-08-23T02:02:09.945Z,81.47
2017-08-23T02:02:50.553Z,81.27
2017-08-23T02:03:31.136Z,81.27
2017-08-23T02:04:11.705Z,81.27
2017-08-23T02:04:52.262Z,81.66
2017-08-23T02:05:32.859Z,81.7
2017-08-23T02:06:13.414Z,81.6
2017-08-23T02:06:53.990Z,81.56
2017-08-23T02:07:34.563Z,81.47
2017-08-23T02:08:15.150Z,81.56
2017-08-23T02:08:55.706Z,81.32
2017-08-23T02:09:36.285Z,81.41
2017-08-23T02:10:16.872Z,81.32
2017-08-23T02:10:57.461Z,81.13
2017-08-23T02:11:38.040Z,81.27
2017-08-23T02:12:18.609Z,81.18
2017-08-23T02:12:59.187Z,80.99
2017-08-23T02:13:39.794Z,80.99
2017-08-23T02:14:20.357Z,80.99
2017-08-23T02:15:00.936Z,80.99
2017-08-23T02:15:41.514Z,81.09
2017-08-23T02:16:22.074Z,81.27
2017-08-23T02:17:02.635Z,81.09
2017-08-23T02:17:43.222Z,81.27
2017-08-23T02:18:23.795Z,81.27
2017-08-23T02:19:04.412Z,81.51
2017-08-23T02:19:45.047Z,81.18
2017-08-23T02:20:25.615Z,81.18
2017-08-23T02:21:06.173Z,81.32
2017-08-23T02:21:46.790Z,81.47
2017-08-23T02:22:27.364Z,81.56
2017-08-23T02:23:07.916Z,80.51
2017-08-23T02:23:48.490Z,81.18
2017-08-23T02:24:29.105Z,80.99
2017-08-23T02:25:09.681Z,80.99
2017-08-23T02:25:50.246Z,80.51
2017-08-23T02:26:30.809Z,81.56
2017-08-23T02:27:11.374Z,81.18
2017-08-23T02:27:51.945Z,80.9
2017-08-23T02:28:32.504Z,81.09
2017-08-23T02:29:13.139Z,80.7
2017-08-23T02:29:53.730Z,80.8
2017-08-23T02:30:34.319Z,80.99
2017-08-23T02:31:14.895Z,81.18
2017-08-23T02:31:55.479Z,81.09
2017-08-23T02:32:36.035Z,81.09
2017-08-23T02:33:16.634Z,81.56
2017-08-23T02:33:57.196Z,80.51
2017-08-23T02:34:37.786Z,81.18
2017-08-23T02:35:18.374Z,81.09
2017-08-23T02:35:58.940Z,81.47
2017-08-23T02:36:39.501Z,81.18
2017-08-23T02:37:20.091Z,81.09
2017-08-23T02:38:00.672Z,81.27
2017-08-23T02:38:41.236Z,81.56
2017-08-23T02:39:21.816Z,81.56
2017-08-23T02:40:02.394Z,81.56
2017-08-23T02:40:42.967Z,81.37
2017-08-23T02:41:23.551Z,81.47
2017-08-23T02:42:04.110Z,81.56
2017-08-23T02:42:44.700Z,81.66
2017-08-23T02:43:25.287Z,81.47
2017-08-23T02:44:05.852Z,81.27
2017-08-23T02:44:46.439Z,81.27
2017-08-23T02:45:27.001Z,81.66
2017-08-23T02:46:07.578Z,81.18
2017-08-23T02:46:48.133Z,81.18
2017-08-23T02:47:28.702Z,81.56
2017-08-23T02:48:09.268Z,81.47
2017-08-23T02:48:49.874Z,81.56
2017-08-23T02:49:30.448Z,81.47
2017-08-23T02:50:11.009Z,81.47
2017-08-23T02:50:51.591Z,81.66
2017-08-23T02:51:32.150Z,81.56
2017-08-23T02:52:12.717Z,81.56
2017-08-23T02:52:53.286Z,81.56
2017-08-23T02:53:33.859Z,81.47
2017-08-23T02:54:14.438Z,81.66
2017-08-23T02:54:54.995Z,81.56
2017-08-23T02:55:35.588Z,81.27
2017-08-23T02:56:16.194Z,81.47
2017-08-23T02:56:56.768Z,81.56
2017-08-23T02:57:37.342Z,81.47
2017-08-23T02:58:17.915Z,81.76
2017-08-23T02:58:58.496Z,81.66
2017-08-23T02:59:39.075Z,81.27
2017-08-23T03:00:19.627Z,81.66
2017-08-23T03:01:00.187Z,81.66
2017-08-23T03:01:40.784Z,81.76
2017-08-23T03:02:21.349Z,81.37
2017-08-23T03:03:01.955Z,81.66
2017-08-23T03:03:42.528Z,81.66
2017-08-23T03:04:23.096Z,82.14
2017-08-23T03:05:03.673Z,82.23
2017-08-23T03:05:44.235Z,82.23
2017-08-23T03:06:24.818Z,81.56
2017-08-23T03:07:05.393Z,81.85
2017-08-23T03:07:45.987Z,82.23
2017-08-23T03:08:26.560Z,82.14
2017-08-23T03:09:07.130Z,82.04
2017-08-23T03:09:47.701Z,82.04
2017-08-23T03:10:28.260Z,81.95
2017-08-23T03:11:08.828Z,81.95
2017-08-23T03:11:49.422Z,82.23
2017-08-23T03:12:30.002Z,81.76
2017-08-23T03:13:10.575Z,81.56
2017-08-23T03:13:51.145Z,82.04
2017-08-23T03:14:31.725Z,82.23
2017-08-23T03:15:12.297Z,81.56
2017-08-23T03:15:52.863Z,81.56
2017-08-23T03:16:33.435Z,82.23
2017-08-23T03:17:14.003Z,81.95
2017-08-23T03:17:54.563Z,82.23
2017-08-23T03:18:35.133Z,82.23
2017-08-23T03:19:15.701Z,81.56
2017-08-23T03:19:56.274Z,82.32
2017-08-23T03:20:36.831Z,82.04
2017-08-23T03:21:17.414Z,81.76
2017-08-23T03:21:57.978Z,81.95
2017-08-23T03:22:38.540Z,81.95
2017-08-23T03:23:19.138Z,81.95
2017-08-23T03:23:59.685Z,82.04
2017-08-23T03:24:40.255Z,82.14
2017-08-23T03:25:20.823Z,82.04
2017-08-23T03:26:01.413Z,82.04
2017-08-23T03:26:41.963Z,82.32
2017-08-23T03:27:22.547Z,81.95
2017-08-23T03:28:03.120Z,81.85
2017-08-23T03:28:43.686Z,82.32
2017-08-23T03:29:24.246Z,82.23
2017-08-23T03:30:04.804Z,82.32
2017-08-23T03:30:45.386Z,81.95
2017-08-23T03:31:25.958Z,82.52
2017-08-23T03:32:06.514Z,82.81
2017-08-23T03:32:47.086Z,82.81
2017-08-23T03:33:27.653Z,82.71
2017-08-23T03:34:08.216Z,82.52
2017-08-23T03:34:48.796Z,82.52
2017-08-23T03:35:29.362Z,82.61
2017-08-23T03:36:09.936Z,82.71
2017-08-23T03:36:50.521Z,82.61
2017-08-23T03:37:31.119Z,82.81
2017-08-23T03:38:11.689Z,82.71
2017-08-23T03:38:52.276Z,82.61
2017-08-23T03:39:32.853Z,82.52
2017-08-23T03:40:13.412Z,82.71
2017-08-23T03:40:53.995Z,82.52
2017-08-23T03:41:34.578Z,83
2017-08-23T03:42:15.142Z,82.81
2017-08-23T03:42:55.715Z,83.09
2017-08-23T03:43:36.283Z,82.42
2017-08-23T03:44:16.855Z,83.47
2017-08-23T03:44:57.449Z,82.81
2017-08-23T03:45:38.030Z,82.52
2017-08-23T03:46:18.592Z,83.28
2017-08-23T03:46:59.163Z,83
2017-08-23T03:47:39.753Z,83.09
2017-08-23T03:48:20.331Z,83.28
2017-08-23T03:49:00.898Z,83
2017-08-23T03:49:41.463Z,83.28
2017-08-23T03:50:22.041Z,83
2017-08-23T03:51:02.636Z,82.61
2017-08-23T03:51:43.208Z,83.18
2017-08-23T03:52:23.775Z,83.28
2017-08-23T03:53:04.339Z,82.52
2017-08-23T03:53:44.911Z,82.71
2017-08-23T03:54:25.489Z,82.9
2017-08-23T03:55:06.050Z,82.81
2017-08-23T03:55:46.658Z,83
2017-08-23T03:56:27.243Z,82.9
2017-08-23T03:57:07.817Z,82.9
2017-08-23T03:57:48.371Z,82.81
2017-08-23T03:58:28.947Z,83
2017-08-23T03:59:09.504Z,83.18
2017-08-23T03:59:50.068Z,82.9
2017-08-23T04:00:30.649Z,83
2017-08-23T04:01:11.214Z,82.81
2017-08-23T04:01:51.809Z,82.9
2017-08-23T04:02:32.373Z,82.9
2017-08-23T04:03:12.963Z,83.28
2017-08-23T04:03:53.527Z,83.38
2017-08-23T04:04:34.097Z,82.71
2017-08-23T04:05:14.669Z,83.38
2017-08-23T04:05:55.245Z,82.81
2017-08-23T04:06:35.866Z,82.61
2017-08-23T04:07:16.447Z,83
2017-08-23T04:07:57.030Z,82.9
2017-08-23T04:08:37.609Z,82.9
2017-08-23T04:09:18.193Z,82.81
2017-08-23T04:09:58.751Z,82.9
2017-08-23T04:10:39.307Z,82.9
2017-08-23T04:11:19.880Z,82.9
2017-08-23T04:12:00.442Z,82.61
2017-08-23T04:12:41.025Z,82.9
2017-08-23T04:13:21.590Z,82.61
2017-08-23T04:14:02.167Z,82.61
2017-08-23T04:14:42.740Z,82.52
2017-08-23T04:15:23.316Z,82.71
2017-08-23T04:16:03.889Z,82.81
2017-08-23T04:16:44.454Z,82.61
2017-08-23T04:17:25.023Z,82.32
2017-08-23T04:18:05.601Z,82.42
2017-08-23T04:18:46.202Z,82.9
2017-08-23T04:19:26.789Z,82.52
2017-08-23T04:20:07.358Z,82.32
2017-08-23T04:20:47.950Z,82.9
2017-08-23T04:21:28.514Z,82.9
2017-08-23T04:22:09.088Z,82.81
2017-08-23T04:22:49.648Z,82.52
2017-08-23T04:23:30.242Z,82.61
2017-08-23T04:24:10.809Z,82.61
2017-08-23T04:24:51.386Z,82.23
2017-08-23T04:25:31.954Z,82.42
2017-08-23T04:26:12.544Z,82.9
2017-08-23T04:26:53.114Z,83
2017-08-23T04:27:33.707Z,82.61
2017-08-23T04:28:14.279Z,82.81
2017-08-23T04:28:54.868Z,82.61
2017-08-23T04:29:35.445Z,82.81
2017-08-23T04:30:16.011Z,82.42
2017-08-23T04:30:56.582Z,82.61
2017-08-23T04:31:37.138Z,82.71
2017-08-23T04:32:17.710Z,82.81
2017-08-23T04:32:58.269Z,82.61
2017-08-23T04:33:38.853Z,82.71
2017-08-23T04:34:19.404Z,82.71
2017-08-23T04:34:59.970Z,82.32
2017-08-23T04:35:40.547Z,82.32
2017-08-23T04:36:21.113Z,82.81
2017-08-23T04:37:01.688Z,82.81
2017-08-23T04:37:42.272Z,82.61
2017-08-23T04:38:22.853Z,82.61
2017-08-23T04:39:03.430Z,82.52
2017-08-23T04:39:44.010Z,82.81
2017-08-23T04:40:24.587Z,82.81
2017-08-23T04:41:05.155Z,82.52
2017-08-23T04:41:45.717Z,82.61
2017-08-23T04:42:26.304Z,82.9
2017-08-23T04:43:06.880Z,82.71
2017-08-23T04:43:47.460Z,82.04
2017-08-23T04:44:28.029Z,82.04
2017-08-23T04:45:08.590Z,82.23
2017-08-23T04:45:49.196Z,82.23
2017-08-23T04:46:29.780Z,82.04
2017-08-23T04:47:10.355Z,82.71
2017-08-23T04:47:50.911Z,82.9
2017-08-23T04:48:31.491Z,82.81
2017-08-23T04:49:12.124Z,82.81
2017-08-23T04:49:52.687Z,82.23
2017-08-23T04:50:33.271Z,82.23
2017-08-23T04:51:13.829Z,82.23
2017-08-23T04:51:54.399Z,82.14
2017-08-23T04:52:34.988Z,82.04
2017-08-23T04:53:15.559Z,82.23
2017-08-23T04:53:56.129Z,82.32
2017-08-23T04:54:36.738Z,82.14
2017-08-23T04:55:17.288Z,82.04
2017-08-23T04:55:57.857Z,82.23
2017-08-23T04:56:38.429Z,82.9
2017-08-23T04:57:19.005Z,82.81
2017-08-23T04:57:59.560Z,82.08
2017-08-23T04:58:40.126Z,82.08
2017-08-23T04:59:20.696Z,82.37
2017-08-23T05:00:01.281Z,82.37
2017-08-23T05:00:41.866Z,82.28
2017-08-23T05:01:22.437Z,82.08
2017-08-23T05:02:03.011Z,81.89
2017-08-23T05:02:43.578Z,82.28
2017-08-23T05:03:24.154Z,82.08
2017-08-23T05:04:04.721Z,82.75
2017-08-23T05:04:45.280Z,82.42
2017-08-23T05:05:25.856Z,82.52
2017-08-23T05:06:06.426Z,82.71
2017-08-23T05:06:47.026Z,83
2017-08-23T05:07:27.609Z,82.61
2017-08-23T05:08:08.188Z,82.81
2017-08-23T05:08:48.753Z,82.32
2017-08-23T05:09:29.345Z,82.52
2017-08-23T05:10:09.909Z,82.71
2017-08-23T05:10:50.476Z,82.71
2017-08-23T05:11:31.041Z,82.71
2017-08-23T05:12:11.607Z,82.32
2017-08-23T05:12:52.208Z,82.81
2017-08-23T05:13:32.754Z,82.75
2017-08-23T05:14:13.320Z,82.52
2017-08-23T05:14:53.895Z,82.61
2017-08-23T05:15:34.460Z,82.61
2017-08-23T05:16:15.049Z,82.71
2017-08-23T05:16:55.612Z,82.46
2017-08-23T05:17:36.195Z,82.46
2017-08-23T05:18:16.751Z,82.56
2017-08-23T05:18:57.329Z,82.84
2017-08-23T05:19:37.890Z,82.75
2017-08-23T05:20:18.461Z,82.75
2017-08-23T05:20:59.029Z,82.56
2017-08-23T05:21:39.604Z,82.75
2017-08-23T05:22:20.179Z,82.84
2017-08-23T05:23:00.740Z,82.75
2017-08-23T05:23:41.317Z,82.75
2017-08-23T05:24:21.902Z,82.75
2017-08-23T05:25:02.481Z,82.94
2017-08-23T05:25:43.056Z,82.94
2017-08-23T05:26:23.632Z,82.84
2017-08-23T05:27:04.213Z,82.84
2017-08-23T05:27:44.792Z,82.18
2017-08-23T05:28:25.355Z,82.37
2017-08-23T05:29:05.924Z,81.99
2017-08-23T05:29:46.492Z,82.28
2017-08-23T05:30:27.076Z,81.99
2017-08-23T05:31:07.637Z,82.08
2017-08-23T05:31:48.247Z,82.08
2017-08-23T05:32:28.810Z,81.99
2017-08-23T05:33:09.364Z,82.28
2017-08-23T05:33:49.923Z,82.08
2017-08-23T05:34:30.541Z,82.56
2017-08-23T05:35:11.103Z,82.56
2017-08-23T05:35:51.682Z,82.75
2017-08-23T05:36:32.256Z,82.75
2017-08-23T05:37:12.815Z,81.79
2017-08-23T05:37:53.411Z,82.84
2017-08-23T05:38:33.997Z,82.84
2017-08-23T05:39:14.583Z,82.84
2017-08-23T05:39:55.166Z,82.56
2017-08-23T05:40:35.745Z,82.18
2017-08-23T05:41:16.306Z,82.28
2017-08-23T05:41:56.871Z,82.46
2017-08-23T05:42:37.476Z,82.08
2017-08-23T05:43:18.030Z,81.99
2017-08-23T05:43:58.599Z,82.28
2017-08-23T05:44:39.273Z,82.37
2017-08-23T05:45:19.860Z,82.28
2017-08-23T05:46:00.421Z,81.6
2017-08-23T05:46:40.987Z,82.03
2017-08-23T05:47:21.560Z,81.93
2017-08-23T05:48:02.159Z,82.03
2017-08-23T05:48:42.727Z,82.03
2017-08-23T05:49:23.298Z,82.12
2017-08-23T05:50:03.901Z,81.93
2017-08-23T05:50:44.579Z,82.12
2017-08-23T05:51:25.152Z,82.12
2017-08-23T05:52:05.738Z,82.22
2017-08-23T05:52:46.323Z,82.12
2017-08-23T05:53:26.867Z,82.03
2017-08-23T05:54:07.445Z,81.74
2017-08-23T05:54:48.061Z,81.65
2017-08-23T05:55:28.621Z,81.65
2017-08-23T05:56:09.191Z,81.84
2017-08-23T05:56:49.768Z,81.55
2017-08-23T05:57:30.342Z,81.74
2017-08-23T05:58:10.920Z,81.65
2017-08-23T05:58:51.487Z,81.55
2017-08-23T05:59:32.053Z,81.84
2017-08-23T06:00:12.625Z,81.65
2017-08-23T06:00:53.195Z,81.11
2017-08-23T06:01:33.804Z,80.5
2017-08-23T06:02:14.370Z,81.21
2017-08-23T06:02:55.010Z,80.73
2017-08-23T06:03:35.612Z,80.73
2017-08-23T06:04:16.189Z,80.73
2017-08-23T06:04:56.757Z,80.63
2017-08-23T06:05:37.335Z,80.73
2017-08-23T06:06:17.959Z,80.16
2017-08-23T06:06:58.531Z,80.54
2017-08-23T06:07:39.108Z,80.25
2017-08-23T06:08:19.674Z,80.06
2017-08-23T06:09:00.260Z,80.16
2017-08-23T06:09:40.819Z,80.35
2017-08-23T06:10:21.411Z,80.25
2017-08-23T06:11:01.989Z,80.38
2017-08-23T06:11:42.553Z,79.72
2017-08-23T06:12:23.134Z,79.24
2017-08-23T06:13:03.705Z,78.28
2017-08-23T06:13:44.273Z,77.8
2017-08-23T06:14:24.878Z,77.9
2017-08-23T06:15:05.440Z,78.09
2017-08-23T06:15:46.020Z,77.8
2017-08-23T06:16:26.587Z,78.66
2017-08-23T06:17:07.161Z,78.38
2017-08-23T06:17:47.734Z,77.8
2017-08-23T06:18:28.313Z,77.7
2017-08-23T06:19:08.910Z,77.7
2017-08-23T06:19:49.489Z,77.8
2017-08-23T06:20:30.102Z,77.7
2017-08-23T06:21:10.692Z,77.65
2017-08-23T06:21:51.250Z,77.94
2017-08-23T06:22:31.839Z,77.75
2017-08-23T06:23:12.421Z,77.84
2017-08-23T06:23:52.988Z,77.17
2017-08-23T06:24:33.560Z,76.5
2017-08-23T06:25:14.140Z,75.73
2017-08-23T06:25:54.741Z,75.26
2017-08-23T06:26:35.337Z,75.35
2017-08-23T06:27:15.894Z,75.58
2017-08-23T06:27:56.474Z,75.2
2017-08-23T06:28:37.044Z,74.91
2017-08-23T06:29:17.626Z,74.15
2017-08-23T06:29:58.251Z,74.57
2017-08-23T06:30:38.828Z,74.27
2017-08-23T06:31:19.400Z,74.47
2017-08-23T06:31:59.974Z,73.83
2017-08-23T06:32:40.561Z,72.97
2017-08-23T06:33:21.136Z,72.78
2017-08-23T06:34:01.719Z,71.66
2017-08-23T06:34:42.291Z,70.99
2017-08-23T06:35:22.863Z,69.93
2017-08-23T06:36:03.447Z,69.93
2017-08-23T06:36:44.031Z,68.91
2017-08-23T06:37:24.607Z,68.34
2017-08-23T06:38:05.184Z,68.24
2017-08-23T06:38:45.765Z,67.86
2017-08-23T06:39:26.343Z,67.19
2017-08-23T06:40:06.928Z,67.38
2017-08-23T06:40:47.493Z,66.84
2017-08-23T06:41:28.064Z,66.16
2017-08-23T06:42:08.633Z,65.97
2017-08-23T06:42:49.205Z,65.4
2017-08-23T06:43:29.779Z,65.05
2017-08-23T06:44:10.372Z,64.95
2017-08-23T06:44:50.979Z,65.05
2017-08-23T06:45:31.556Z,64.37
2017-08-23T06:46:12.134Z,64.47
2017-08-23T06:46:52.705Z,65.23
2017-08-23T06:47:33.282Z,64.85
2017-08-23T06:48:13.860Z,64.66
2017-08-23T06:48:54.439Z,64.18
2017-08-23T06:49:35.016Z,64.37
2017-08-23T06:50:15.606Z,64.02
2017-08-23T06:50:56.184Z,63.92
2017-08-23T06:51:36.794Z,63.45
2017-08-23T06:52:17.379Z,63.54
2017-08-23T06:52:57.953Z,62.68
2017-08-23T06:53:38.543Z,62.96
2017-08-23T06:54:19.138Z,63.28
2017-08-23T06:54:59.761Z,62.51
2017-08-23T06:55:40.344Z,62.51
2017-08-23T06:56:20.935Z,62.13
2017-08-23T06:57:01.527Z,61.84
2017-08-23T06:57:42.105Z,61.49
2017-08-23T06:58:22.677Z,60.91
2017-08-23T06:59:03.236Z,60.91
2017-08-23T06:59:43.819Z,60.33
2017-08-23T07:00:24.410Z,60.14
2017-08-23T07:01:04.977Z,59.85
2017-08-23T07:01:45.555Z,59.66
2017-08-23T07:02:26.143Z,58.6
2017-08-23T07:03:06.725Z,58.53
2017-08-23T07:03:47.332Z,58.34
2017-08-23T07:04:27.920Z,58.05
2017-08-23T07:05:08.489Z,57.76
2017-08-23T07:05:49.075Z,58.05
2017-08-23T07:06:29.657Z,57.57
2017-08-23T07:07:10.232Z,57.37
2017-08-23T07:07:50.827Z,57.86
2017-08-23T07:08:31.421Z,58.05
2017-08-23T07:09:11.973Z,57.54
2017-08-23T07:09:52.565Z,57.73
2017-08-23T07:10:33.146Z,58.31
2017-08-23T07:11:13.744Z,58.31
2017-08-23T07:11:54.316Z,58.12
2017-08-23T07:12:34.900Z,58.22
2017-08-23T07:13:15.452Z,58.6
2017-08-23T07:13:56.029Z,57.83
2017-08-23T07:14:36.619Z,57.64
2017-08-23T07:15:17.205Z,57.57
2017-08-23T07:15:57.794Z,57.67
2017-08-23T07:16:38.387Z,56.51
2017-08-23T07:17:18.978Z,54.68
2017-08-23T07:17:59.565Z,55.55
2017-08-23T07:18:40.168Z,56.25
2017-08-23T07:19:20.757Z,56.03
2017-08-23T07:20:01.381Z,55.57
2017-08-23T07:20:41.958Z,55.57
2017-08-23T07:21:22.540Z,55.09
2017-08-23T07:22:03.136Z,55.31
2017-08-23T07:22:43.728Z,55.31
2017-08-23T07:23:24.300Z,55.12
2017-08-23T07:24:05.020Z,54.64
2017-08-23T07:24:45.905Z,54.25
2017-08-23T07:25:26.488Z,53.7
2017-08-23T07:26:07.081Z,52.93
2017-08-23T07:26:47.664Z,53.03
2017-08-23T07:27:28.254Z,53.41
2017-08-23T07:28:08.851Z,53.51
2017-08-23T07:28:49.419Z,53.51
2017-08-23T07:29:29.995Z,52.83
2017-08-23T07:30:10.572Z,53.15
2017-08-23T07:30:51.153Z,52.67
2017-08-23T07:31:31.735Z,52.76
2017-08-23T07:32:12.298Z,52.76
2017-08-23T07:32:52.890Z,52.47
2017-08-23T07:33:33.464Z,52.57
2017-08-23T07:34:14.055Z,51.99
2017-08-23T07:34:55.056Z,50.64
2017-08-23T07:35:35.632Z,51.63
2017-08-23T07:36:16.220Z,51.92
2017-08-23T07:36:56.807Z,51.73
2017-08-23T07:37:37.424Z,51.44
2017-08-23T07:38:18.034Z,51.63
2017-08-23T07:38:58.613Z,51.25
2017-08-23T07:39:39.185Z,50.86
2017-08-23T07:40:19.763Z,50.38
2017-08-23T07:41:00.351Z,49.6
2017-08-23T07:41:40.943Z,50.96
2017-08-23T07:42:21.525Z,50.86
2017-08-23T07:43:02.108Z,50.57
2017-08-23T07:43:42.741Z,50.31
2017-08-23T07:44:23.313Z,50.38
2017-08-23T07:45:03.911Z,50.59
2017-08-23T07:45:44.520Z,50.79
2017-08-23T07:46:25.147Z,50.21
2017-08-23T07:47:05.718Z,49.92
2017-08-23T07:47:46.309Z,49.63
2017-08-23T07:48:26.890Z,49.63
2017-08-23T07:49:07.463Z,49.63
2017-08-23T07:49:48.041Z,49.73
2017-08-23T07:50:28.611Z,49.63
2017-08-23T07:51:09.186Z,49.82
2017-08-23T07:51:49.765Z,48.97
2017-08-23T07:52:30.351Z,48.69
2017-08-23T07:53:10.935Z,48.59
2017-08-23T07:53:51.520Z,48.69
2017-08-23T07:54:32.110Z,48.49
2017-08-23T07:55:12.689Z,48.59
2017-08-23T07:55:53.272Z,48.79
2017-08-23T07:56:33.854Z,48.39
2017-08-23T07:57:14.448Z,48.3
2017-08-23T07:57:55.054Z,48.49
2017-08-23T07:58:35.649Z,47.72
2017-08-23T07:59:16.226Z,47.53
2017-08-23T07:59:56.811Z,47.63
2017-08-23T08:00:37.394Z,47.91
2017-08-23T08:01:17.982Z,47.33
2017-08-23T08:01:58.566Z,47.33
2017-08-23T08:02:39.158Z,47.91
2017-08-23T08:03:19.752Z,48.11
2017-08-23T08:04:00.367Z,48.39
2017-08-23T08:04:40.960Z,48.69
2017-08-23T08:05:21.571Z,48.21
2017-08-23T08:06:02.183Z,49.27
2017-08-23T08:06:42.766Z,48.39
2017-08-23T08:07:23.352Z,48.01
2017-08-23T08:08:03.934Z,47.72
2017-08-23T08:08:44.523Z,48.11
2017-08-23T08:09:25.111Z,47.72
2017-08-23T08:10:05.697Z,47.43
2017-08-23T08:10:46.272Z,47.05
2017-08-23T08:11:26.858Z,45.5
2017-08-23T08:12:07.424Z,45.21
2017-08-23T08:12:47.994Z,45.21
2017-08-23T08:13:28.588Z,45.89
2017-08-23T08:14:09.171Z,46.15
2017-08-23T08:14:49.739Z,47.02
2017-08-23T08:15:30.315Z,47.53
2017-08-23T08:16:10.895Z,47.72
2017-08-23T08:16:51.473Z,47.8
2017-08-23T08:17:32.055Z,47.81
2017-08-23T08:18:12.633Z,46.25
2017-08-23T08:18:53.208Z,45.59
2017-08-23T08:19:33.793Z,44.7
2017-08-23T08:20:14.367Z,45.38
2017-08-23T08:20:54.953Z,46.06
2017-08-23T08:21:35.552Z,47.12
2017-08-23T08:22:16.136Z,47.5
2017-08-23T08:22:56.709Z,47.7
2017-08-23T08:23:37.277Z,48.66
2017-08-23T08:24:17.860Z,48.37
2017-08-23T08:24:58.434Z,48.18
2017-08-23T08:25:39.010Z,47.8
2017-08-23T08:26:19.585Z,48.11
2017-08-23T08:27:00.159Z,46.85
2017-08-23T08:27:40.757Z,47.22
2017-08-23T08:28:21.329Z,48.11
2017-08-23T08:29:01.914Z,48.01
2017-08-23T08:29:42.510Z,47.22
2017-08-23T08:30:23.083Z,47.43
2017-08-23T08:31:03.671Z,47.6
2017-08-23T08:31:44.254Z,48.21
2017-08-23T08:32:24.829Z,48.39
2017-08-23T08:33:05.423Z,48.11
2017-08-23T08:33:46.003Z,48.69
2017-08-23T08:34:26.586Z,48.59
2017-08-23T08:35:07.187Z,48.3
2017-08-23T08:35:47.760Z,47.91
2017-08-23T08:36:28.349Z,46.85
2017-08-23T08:37:09.031Z,45.69
2017-08-23T08:37:49.570Z,45.11
2017-08-23T08:38:30.140Z,46.17
2017-08-23T08:39:10.727Z,47.05
2017-08-23T08:39:51.296Z,47.14
2017-08-23T08:40:31.873Z,47.14
2017-08-23T08:41:12.524Z,47.12
2017-08-23T08:41:53.035Z,47.91
2017-08-23T08:42:33.606Z,47.5
2017-08-23T08:43:14.190Z,48.08
2017-08-23T08:43:54.770Z,47.72
2017-08-23T08:44:35.351Z,47.81